Time;durP1;ratioP1;P1;durP2;ratioP2;P2;SDS_P1;SDS_P2;PMS_P1;PMS_P2;Temp;Humidity;BMP_temperature;BMP_pressure;BME280_temperature;BME280_humidity;BME280_pressure;Samples;Min_cycle;Max_cycle;Signal;HPM_P1;HPM_P2
2022/12/11 02:19:40;;;;;;;15.04;13.77;;;;;;;5.89;92.95;100521.45;468923;112;943975;-72
2022/12/11 02:21:11;;;;;;;14.69;13.48;;;;;;;5.86;92.74;100522.63;449200;118;922514;-72
2022/12/11 02:23:02;;;;;;;13.40;12.43;;;;;;;6.09;92.31;100527.98;503015;105;947156;-71
2022/12/11 02:24:15;;;;;;;14.21;13.17;;;;;;;6.01;92.07;100534.31;493023;107;922588;-71
2022/12/11 02:25:25;;;;;;;13.37;12.32;;;;;;;6.06;91.99;100533.78;493082;107;923021;-71
2022/12/11 02:26:40;;;;;;;13.84;12.88;;;;;;;6.09;91.99;100531.53;491778;107;922530;-71
2022/12/11 02:27:47;;;;;;;13.62;12.62;;;;;;;6.12;91.81;100536.56;490924;107;922815;-72
2022/12/11 02:29:02;;;;;;;13.22;12.27;;;;;;;6.18;91.84;100537.67;490767;107;922511;-72
2022/12/11 02:30:09;;;;;;;14.60;13.34;;;;;;;6.21;91.74;100535.45;486023;107;922973;-74
2022/12/11 02:31:24;;;;;;;14.19;13.07;;;;;;;6.25;91.53;100538.61;485661;109;922609;-73
2022/12/11 02:32:52;;;;;;;14.15;13.04;;;;;;;6.28;91.43;100532.84;487590;108;922500;-73
2022/12/11 02:34:16;;;;;;;14.83;13.52;;;;;;;6.31;91.33;100531.61;490779;107;922553;-73
2022/12/11 02:35:32;;;;;;;14.84;13.75;;;;;;;6.35;91.15;100530.19;490835;108;922480;-73
2022/12/11 02:36:38;;;;;;;15.02;13.75;;;;;;;6.37;90.95;100522.73;490855;108;922502;-74
2022/12/11 02:37:44;;;;;;;14.89;13.72;;;;;;;6.40;90.88;100522.34;490853;108;922471;-72
2022/12/11 02:38:50;;;;;;;16.17;14.92;;;;;;;6.41;90.80;100515.90;490849;108;923041;-72
2022/12/11 02:39:55;;;;;;;14.93;13.68;;;;;;;6.43;90.54;100519.27;485468;107;922829;-72
2022/12/11 02:41:00;;;;;;;15.06;13.90;;;;;;;6.43;90.37;100514.70;485960;108;922488;-72
2022/12/11 02:42:04;;;;;;;14.25;13.07;;;;;;;6.45;90.42;100518.03;490792;108;922880;-72
2022/12/11 02:43:11;;;;;;;14.39;13.37;;;;;;;6.47;90.24;100510.57;490974;107;922453;-72
2022/12/11 02:44:16;;;;;;;14.05;13.01;;;;;;;6.49;90.23;100500.40;490823;108;922581;-72
2022/12/11 02:45:22;;;;;;;13.93;12.83;;;;;;;6.50;89.95;100506.66;485317;107;923240;-72
2022/12/11 02:46:26;;;;;;;13.60;12.56;;;;;;;6.52;89.91;100513.55;484626;109;922536;-72
2022/12/11 02:47:32;;;;;;;14.08;12.84;;;;;;;6.53;89.69;100512.52;484533;107;923035;-71
2022/12/11 02:48:36;;;;;;;13.15;12.12;;;;;;;6.54;89.65;100510.66;488180;108;922484;-71
2022/12/11 02:49:43;;;;;;;13.59;12.50;;;;;;;6.55;89.54;100512.34;490902;107;922533;-71
2022/12/11 02:50:49;;;;;;;14.67;13.45;;;;;;;6.55;89.40;100518.60;483586;107;922560;-71
2022/12/11 02:51:55;;;;;;;13.70;12.54;;;;;;;6.56;89.23;100519.45;484702;107;922888;-72
2022/12/11 02:53:01;;;;;;;14.06;12.94;;;;;;;6.58;89.29;100517.36;485231;107;922807;-71
2022/12/11 02:54:07;;;;;;;13.13;12.09;;;;;;;6.58;89.10;100526.33;486675;108;923000;-70
2022/12/11 02:55:13;;;;;;;13.93;12.77;;;;;;;6.58;88.79;100523.62;482131;108;922464;-71
2022/12/11 02:56:20;;;;;;;12.78;11.71;;;;;;;6.59;88.69;100524.47;487264;107;922527;-73
2022/12/11 02:57:27;;;;;;;13.31;12.23;;;;;;;6.58;88.54;100523.62;490690;107;922430;-72
2022/12/11 02:58:32;;;;;;;13.02;12.02;;;;;;;6.58;88.54;100520.08;488069;108;922866;-73
2022/12/11 02:59:39;;;;;;;13.89;12.86;;;;;;;6.58;88.37;100525.49;481886;110;922942;-72
2022/12/11 03:00:44;;;;;;;13.83;12.78;;;;;;;6.58;88.26;100528.20;481913;110;922578;-73
2022/12/11 03:01:47;;;;;;;13.36;12.36;;;;;;;6.59;88.19;100532.59;481896;109;922581;-73
2022/12/11 03:02:50;;;;;;;14.05;12.99;;;;;;;6.59;88.18;100529.89;477172;109;923282;-73
2022/12/11 03:03:55;;;;;;;14.32;12.95;;;;;;;6.61;88.07;100527.84;481037;109;922458;-73
2022/12/11 03:04:58;;;;;;;13.32;12.08;;;;;;;6.61;88.06;100520.55;479869;110;922656;-73
2022/12/11 03:06:02;;;;;;;14.18;12.94;;;;;;;6.62;87.80;100524.07;481980;109;922564;-73
2022/12/11 03:07:15;;;;;;;14.60;13.02;;;;;;;6.63;87.67;100520.34;480526;109;925821;-72
2022/12/11 03:08:18;;;;;;;13.72;12.40;;;;;;;6.64;87.75;100519.31;478153;109;922528;-73
2022/12/11 03:09:22;;;;;;;13.50;12.40;;;;;;;6.64;87.62;100530.99;476341;110;922529;-73
2022/12/11 03:10:25;;;;;;;13.99;12.88;;;;;;;6.65;87.43;100531.84;481137;109;922529;-72
2022/12/11 03:11:28;;;;;;;13.68;12.48;;;;;;;6.66;87.33;100528.10;477435;110;922836;-73
2022/12/11 03:12:35;;;;;;;13.94;12.89;;;;;;;6.68;87.32;100539.56;482061;110;922907;-73
2022/12/11 03:13:41;;;;;;;13.00;11.99;;;;;;;6.68;87.05;100537.70;480123;109;924240;-73
2022/12/11 03:14:44;;;;;;;13.94;12.87;;;;;;;6.67;86.93;100532.50;477680;109;922457;-73
2022/12/11 03:16:16;;;;;;;14.46;13.12;;;;;;;6.66;86.88;100541.65;477114;111;922457;-72
2022/12/11 03:17:26;;;;;;;13.94;12.67;;;;;;;6.65;86.68;100535.39;477663;109;922934;-73
2022/12/11 03:18:45;;;;;;;14.40;13.22;;;;;;;6.65;86.65;100534.55;479929;109;923023;-73
2022/12/11 03:20:14;;;;;;;14.19;12.06;;;;;;;6.74;86.50;100544.23;482509;110;947618;-74
2022/12/11 03:21:23;;;;;;;13.24;12.04;;;;;;;6.62;86.46;100543.88;473313;112;923121;-71
2022/12/11 03:22:42;;;;;;;14.90;13.64;;;;;;;6.63;86.44;100542.86;473123;112;922540;-71
2022/12/11 03:24:03;;;;;;;14.16;13.02;;;;;;;6.64;86.45;100549.95;471844;112;922440;-73
2022/12/11 03:25:10;;;;;;;14.60;12.95;;;;;;;6.64;86.26;100549.95;465505;114;922513;-73
2022/12/11 03:26:16;;;;;;;13.77;12.57;;;;;;;6.65;86.20;100545.38;465499;114;923356;-73
2022/12/11 03:27:31;;;;;;;14.27;12.94;;;;;;;6.66;86.14;100553.33;465441;114;923265;-73
2022/12/11 03:28:38;;;;;;;14.07;12.94;;;;;;;6.68;85.95;100553.11;465034;113;923014;-73
2022/12/11 03:29:44;;;;;;;14.12;12.81;;;;;;;6.68;85.81;100547.70;465393;114;922595;-73
2022/12/11 03:30:50;;;;;;;14.01;12.84;;;;;;;6.66;85.69;100550.62;465435;114;923183;-73
2022/12/11 03:31:57;;;;;;;14.58;13.38;;;;;;;6.68;85.68;100559.37;465506;114;922823;-74
2022/12/11 03:33:06;;;;;;;13.97;12.64;;;;;;;6.69;85.49;100554.80;465478;114;922499;-74
2022/12/11 03:34:19;;;;;;;13.17;12.07;;;;;;;6.70;85.36;100559.20;465101;113;922537;-74
2022/12/11 03:35:41;;;;;;;13.04;11.98;;;;;;;6.69;85.37;100554.80;465494;114;922550;-74
2022/12/11 03:36:46;;;;;;;13.63;12.56;;;;;;;6.69;85.15;100561.06;464190;114;923058;-72
2022/12/11 03:37:52;;;;;;;13.40;12.32;;;;;;;6.71;85.05;100566.30;465495;114;922555;-73
2022/12/11 03:39:07;;;;;;;13.64;12.56;;;;;;;6.71;85.01;100569.01;465487;113;922550;-73
2022/12/11 03:40:14;;;;;;;12.29;11.35;;;;;;;6.73;85.05;100574.25;465492;114;922655;-73
2022/12/11 03:41:21;;;;;;;12.24;11.27;;;;;;;6.74;84.92;100563.20;465491;114;923102;-72
2022/12/11 03:42:26;;;;;;;12.72;11.66;;;;;;;6.77;84.87;100570.12;465482;114;923582;-72
2022/12/11 03:43:30;;;;;;;12.67;11.63;;;;;;;6.79;84.85;100570.75;465524;114;922900;-72
2022/12/11 03:44:35;;;;;;;13.59;12.35;;;;;;;6.80;84.59;100573.28;465480;114;923031;-73
2022/12/11 03:45:40;;;;;;;13.98;12.76;;;;;;;6.80;84.44;100570.56;465472;114;922386;-73
2022/12/11 03:46:45;;;;;;;13.88;12.59;;;;;;;6.80;84.29;100575.98;465455;114;922996;-74
2022/12/11 03:47:50;;;;;;;12.63;11.48;;;;;;;6.81;84.12;100572.25;465527;114;922458;-73
2022/12/11 03:48:57;;;;;;;13.07;11.96;;;;;;;6.81;84.03;100566.83;465439;113;922448;-73
2022/12/11 03:50:03;;;;;;;13.16;12.11;;;;;;;6.81;84.00;100577.67;465445;114;922486;-73
2022/12/11 03:51:06;;;;;;;13.12;11.87;;;;;;;6.82;83.87;100571.22;465429;114;922580;-73
2022/12/11 03:52:13;;;;;;;13.45;12.36;;;;;;;6.84;83.82;100571.85;465545;114;922479;-72
2022/12/11 03:53:18;;;;;;;12.46;11.57;;;;;;;6.83;83.68;100567.49;465470;114;922900;-73
2022/12/11 03:54:22;;;;;;;12.84;11.76;;;;;;;6.84;83.52;100566.44;465472;113;922455;-74
2022/12/11 03:55:27;;;;;;;12.60;11.61;;;;;;;6.83;83.23;100564.78;465617;114;922753;-73
2022/12/11 03:56:32;;;;;;;12.13;11.14;;;;;;;6.83;83.11;100567.49;465518;114;922463;-74
2022/12/11 03:57:37;;;;;;;13.31;12.09;;;;;;;6.83;83.05;100563.94;465415;114;930369;-73
2022/12/11 03:58:40;;;;;;;13.51;12.46;;;;;;;6.82;83.11;100557.67;465455;113;922524;-73
2022/12/11 03:59:43;;;;;;;13.62;12.33;;;;;;;6.82;82.94;100563.09;465600;114;930385;-73
2022/12/11 04:00:46;;;;;;;13.46;12.29;;;;;;;6.84;82.87;100566.44;465669;114;922655;-73
2022/12/11 04:01:49;;;;;;;12.31;11.19;;;;;;;6.84;82.72;100566.44;465715;114;922958;-73
2022/12/11 04:04:16;;;;;;;12.72;11.72;;;;;;;6.85;82.33;100568.13;465359;113;930565;-71
2022/12/11 04:05:19;;;;;;;12.85;11.83;;;;;;;6.84;82.33;100577.28;465576;114;922553;-73
2022/12/11 04:06:22;;;;;;;12.63;11.46;;;;;;;6.84;82.42;100566.44;465650;114;922545;-72
2022/12/11 04:07:25;;;;;;;13.28;11.91;;;;;;;6.84;82.26;100565.59;465658;114;922636;-73
2022/12/11 04:08:28;;;;;;;12.32;11.10;;;;;;;6.84;82.34;100565.59;465655;114;922413;-73
2022/12/11 04:09:31;;;;;;;12.87;10.98;;;;;;;6.85;82.17;100564.57;465644;114;922468;-72
2022/12/11 04:10:34;;;;;;;11.75;10.88;;;;;;;6.85;82.10;100567.28;465643;114;922950;-73
2022/12/11 04:11:38;;;;;;;11.92;11.03;;;;;;;6.85;82.00;100562.70;465703;114;922454;-73
2022/12/11 04:12:41;;;;;;;11.93;10.78;;;;;;;6.85;81.87;100562.70;465620;114;922846;-73
2022/12/11 04:13:44;;;;;;;11.99;10.98;;;;;;;6.85;81.83;100549.15;465645;113;930259;-72
2022/12/11 04:15:02;;;;;;;11.61;10.72;;;;;;;6.86;81.63;100549.99;465689;114;922487;-73
2022/12/11 04:16:06;;;;;;;12.45;11.27;;;;;;;6.85;81.59;100548.30;465463;114;922503;-73
2022/12/11 04:17:09;;;;;;;12.03;10.97;;;;;;;6.84;81.50;100547.46;465576;114;922448;-72
2022/12/11 04:25:02;;;;;;;12.83;11.65;;;;;;;6.81;80.81;100549.73;462701;114;922475;-73
2022/12/11 04:26:12;;;;;;;12.43;11.39;;;;;;;6.78;80.81;100550.94;462760;114;922895;-73
2022/12/11 04:27:47;;;;;;;12.52;11.52;;;;;;;6.78;80.64;100553.64;462705;114;922907;-73
2022/12/11 04:28:23;;;;;;;12.08;11.08;;;;;;;6.76;80.52;100554.88;459993;114;922566;-73
2022/12/11 04:29:26;;;;;;;12.24;11.18;;;;;;;6.74;80.54;100555.06;462901;114;922513;-73
2022/12/11 04:30:30;;;;;;;12.10;11.20;;;;;;;6.73;80.33;100555.28;462825;114;922528;-71
2022/12/11 04:31:35;;;;;;;12.61;11.68;;;;;;;6.72;80.27;100554.44;462623;114;922546;-73
2022/12/11 04:32:37;;;;;;;11.79;10.87;;;;;;;6.71;80.22;100555.46;462870;114;922591;-74
2022/12/11 04:33:41;;;;;;;12.27;11.26;;;;;;;6.71;80.16;100558.17;462840;114;922569;-73
2022/12/11 04:34:44;;;;;;;12.26;11.35;;;;;;;6.70;80.11;100557.33;462741;114;922824;-73
2022/12/11 04:35:47;;;;;;;12.04;11.04;;;;;;;6.71;80.05;100563.59;462760;114;927855;-73
2022/12/11 04:36:50;;;;;;;11.80;10.88;;;;;;;6.72;80.02;100562.56;462838;114;922836;-73
2022/12/11 04:37:54;;;;;;;11.92;10.93;;;;;;;6.73;80.01;100564.22;462840;114;922550;-73
2022/12/11 04:38:57;;;;;;;12.06;11.08;;;;;;;6.74;80.07;100565.91;462806;114;922553;-73
2022/12/11 04:40:00;;;;;;;11.32;10.48;;;;;;;6.76;79.89;100571.98;462847;114;922671;-73
2022/12/11 04:41:06;;;;;;;12.34;11.35;;;;;;;6.78;79.90;100572.61;462829;114;922873;-73
2022/12/11 04:42:09;;;;;;;10.73;9.82;;;;;;;6.80;79.82;100567.02;462601;114;922956;-73
2022/12/11 04:43:12;;;;;;;12.12;10.97;;;;;;;6.80;79.71;100573.28;462819;114;922608;-73
2022/12/11 04:44:15;;;;;;;12.68;11.46;;;;;;;6.81;79.62;100576.83;462787;114;922852;-72
2022/12/11 04:45:18;;;;;;;11.34;10.50;;;;;;;6.81;79.37;100582.25;462833;114;922494;-72
2022/12/11 04:46:23;;;;;;;11.81;10.73;;;;;;;6.81;79.31;100574.96;462826;114;922524;-72
2022/12/11 04:47:26;;;;;;;11.72;10.65;;;;;;;6.81;79.13;100579.54;462680;114;922517;-72
2022/12/11 04:48:29;;;;;;;11.35;10.41;;;;;;;6.80;79.17;100575.98;462798;114;930305;-72
2022/12/11 04:49:32;;;;;;;12.11;11.05;;;;;;;6.80;78.94;100572.44;462815;114;922541;-73
2022/12/11 04:50:35;;;;;;;12.22;11.25;;;;;;;6.79;78.94;100574.30;462896;114;922787;-73
2022/12/11 04:51:39;;;;;;;12.46;11.36;;;;;;;6.78;78.91;100572.61;462827;114;922498;-73
2022/12/11 04:52:42;;;;;;;13.03;11.81;;;;;;;6.80;79.01;100575.14;462802;114;922477;-73
2022/12/11 04:53:45;;;;;;;12.64;11.54;;;;;;;6.80;78.78;100586.83;462716;114;923064;-73
2022/12/11 04:54:50;;;;;;;13.08;11.88;;;;;;;6.79;78.67;100585.14;462653;114;930322;-73
2022/12/11 04:55:54;;;;;;;13.09;11.99;;;;;;;6.80;78.61;100585.98;462629;114;922871;-72
2022/12/11 04:56:57;;;;;;;12.63;11.63;;;;;;;6.80;78.59;100577.85;462737;114;922919;-73
2022/12/11 04:58:00;;;;;;;13.25;11.86;;;;;;;6.79;78.51;100587.84;462842;114;922917;-73
2022/12/11 04:59:03;;;;;;;12.28;11.36;;;;;;;6.78;78.23;100588.88;462801;114;922734;-73
2022/12/11 05:00:08;;;;;;;12.63;11.63;;;;;;;6.76;78.13;100593.66;462820;114;923042;-73
2022/12/11 05:01:14;;;;;;;12.99;12.06;;;;;;;6.75;78.20;100596.55;462676;114;922584;-73
2022/12/11 05:02:17;;;;;;;12.51;11.61;;;;;;;6.72;78.12;100603.20;462633;114;922552;-73
2022/12/11 05:03:22;;;;;;;12.69;11.59;;;;;;;6.70;77.98;100597.97;462818;114;922771;-73
2022/12/11 05:04:27;;;;;;;13.62;11.39;;;;;;;6.68;77.80;100601.88;462701;114;923219;-72
2022/12/11 05:05:30;;;;;;;13.37;12.05;;;;;;;6.65;77.75;100599.56;462571;114;922494;-73
2022/12/11 05:06:33;;;;;;;13.76;12.04;;;;;;;6.62;77.63;100599.92;462821;114;922430;-73
2022/12/11 05:07:37;;;;;;;11.71;10.77;;;;;;;6.62;77.63;100599.92;462775;114;922713;-73
2022/12/11 05:08:41;;;;;;;12.69;11.53;;;;;;;6.59;77.50;100589.48;462771;114;922652;-73
2022/12/11 05:09:44;;;;;;;12.84;11.58;;;;;;;6.58;77.46;100587.80;462662;114;930278;-73
2022/12/11 05:11:02;;;;;;;13.24;12.11;;;;;;;6.55;77.44;100585.48;462837;114;922588;-72
2022/12/11 05:12:05;;;;;;;13.08;11.66;;;;;;;6.52;77.46;100583.97;462613;114;922436;-73
2022/12/11 05:13:08;;;;;;;13.04;11.86;;;;;;;6.49;77.28;100578.10;462836;114;922376;-73
2022/12/11 05:14:11;;;;;;;13.09;11.91;;;;;;;6.47;77.38;100578.28;462821;114;922529;-73
2022/12/11 05:15:14;;;;;;;11.12;10.11;;;;;;;6.44;77.28;100585.95;462843;114;922501;-73
2022/12/11 05:16:18;;;;;;;11.23;10.09;;;;;;;6.43;77.31;100576.14;462711;114;922363;-73
2022/12/11 05:17:21;;;;;;;12.73;11.62;;;;;;;6.41;77.27;100581.73;462819;114;922445;-71
2022/12/11 05:18:25;;;;;;;13.19;11.06;;;;;;;6.40;77.14;100579.21;462724;114;922637;-72
2022/12/11 05:19:28;;;;;;;11.73;10.86;;;;;;;6.37;77.06;100579.60;462607;114;930244;-72
2022/12/11 05:20:31;;;;;;;11.06;10.23;;;;;;;6.34;77.10;100575.39;461241;114;930196;-72
2022/12/11 05:21:34;;;;;;;11.37;10.40;;;;;;;6.32;76.92;100573.91;460912;115;923000;-72
2022/12/11 05:22:38;;;;;;;11.05;10.19;;;;;;;6.29;77.00;100570.53;460787;115;922833;-72
2022/12/11 05:23:41;;;;;;;11.68;10.71;;;;;;;6.27;76.90;100574.48;460850;115;930466;-72
2022/12/11 05:24:44;;;;;;;11.69;10.51;;;;;;;6.26;77.03;100572.79;460802;115;922547;-73
2022/12/11 05:25:52;;;;;;;11.74;10.86;;;;;;;6.24;77.00;100564.84;460930;115;922703;-73
2022/12/11 05:26:55;;;;;;;12.37;11.29;;;;;;;6.23;76.91;100565.87;460710;115;922462;-73
2022/12/11 05:27:59;;;;;;;10.93;9.97;;;;;;;6.23;77.11;100568.58;460895;115;922892;-72
2022/12/11 05:29:02;;;;;;;11.68;10.70;;;;;;;6.23;77.04;100573.15;460930;113;922685;-73
2022/12/11 05:30:06;;;;;;;11.33;10.40;;;;;;;6.21;76.95;100575.22;460925;115;922564;-72
2022/12/11 05:31:17;;;;;;;11.14;10.22;;;;;;;6.21;76.80;100569.80;460815;115;922493;-72
2022/12/11 05:32:20;;;;;;;11.26;10.33;;;;;;;6.19;76.91;100569.98;460714;115;922863;-72
2022/12/11 05:33:24;;;;;;;11.68;10.72;;;;;;;6.19;76.79;100575.40;460950;115;922501;-73
2022/12/11 05:34:28;;;;;;;12.22;11.11;;;;;;;6.19;76.74;100567.28;460815;113;922959;-73
2022/12/11 05:35:31;;;;;;;10.76;9.99;;;;;;;6.18;76.76;100576.42;460850;115;923501;-72
2022/12/11 05:36:34;;;;;;;11.22;10.24;;;;;;;6.19;76.75;100577.27;460920;115;922878;-72
2022/12/11 05:37:37;;;;;;;11.89;10.57;;;;;;;6.20;76.88;100574.38;460940;115;922622;-73
2022/12/11 05:38:40;;;;;;;11.41;10.47;;;;;;;6.20;76.79;100573.53;460953;113;922548;-73
2022/12/11 05:39:42;;;;;;;10.61;9.78;;;;;;;6.20;76.69;100577.09;460893;115;922956;-72
2022/12/11 05:41:01;;;;;;;11.29;10.21;;;;;;;6.20;76.62;100579.80;460906;115;922458;-73
2022/12/11 05:42:04;;;;;;;11.64;10.74;;;;;;;6.22;76.74;100568.78;460720;115;922610;-73
2022/12/11 05:43:07;;;;;;;10.26;9.43;;;;;;;6.23;76.75;100579.41;460894;115;922625;-72
2022/12/11 05:44:12;;;;;;;10.98;9.77;;;;;;;6.24;76.63;100578.38;460897;113;922973;-72
2022/12/11 05:45:15;;;;;;;11.22;10.24;;;;;;;6.27;76.69;100582.59;460726;115;922534;-72
2022/12/11 05:46:23;;;;;;;11.14;10.27;;;;;;;6.30;76.62;100582.21;460930;115;922556;-73
2022/12/11 05:47:26;;;;;;;11.17;10.30;;;;;;;6.33;76.53;100584.56;460735;115;922609;-72
2022/12/11 05:48:29;;;;;;;11.88;10.86;;;;;;;6.34;76.48;100583.51;460948;115;922497;-72
2022/12/11 05:49:33;;;;;;;11.32;10.42;;;;;;;6.35;76.36;100585.20;460890;113;922552;-73
2022/12/11 05:50:36;;;;;;;12.11;11.13;;;;;;;6.39;76.32;100593.80;460922;115;922558;-72
2022/12/11 05:51:42;;;;;;;11.34;10.44;;;;;;;6.40;76.24;100590.89;460580;115;922515;-72
2022/12/11 05:52:45;;;;;;;10.84;10.01;;;;;;;6.43;76.36;100589.69;460818;115;922885;-72
2022/12/11 05:53:50;;;;;;;11.02;10.13;;;;;;;6.45;76.26;100591.16;460942;113;923029;-72
2022/12/11 05:54:53;;;;;;;11.68;10.71;;;;;;;6.48;76.17;100592.67;460789;115;922978;-73
2022/12/11 05:56:04;;;;;;;11.39;10.48;;;;;;;6.51;76.06;100597.70;460940;115;922571;-72
2022/12/11 05:57:07;;;;;;;10.70;9.78;;;;;;;6.54;76.11;100595.47;460112;115;922530;-72
2022/12/11 05:58:10;;;;;;;11.04;10.11;;;;;;;6.56;76.18;100593.39;460873;115;926427;-72
2022/12/11 05:59:13;;;;;;;11.11;10.21;;;;;;;6.61;76.29;100595.56;452905;115;922599;-72
2022/12/11 06:00:16;;;;;;;10.48;9.53;;;;;;;6.63;76.12;100591.62;452905;117;922498;-72
2022/12/11 06:01:28;;;;;;;10.44;9.54;;;;;;;6.65;75.99;100592.28;452982;117;922585;-72
2022/12/11 06:02:34;;;;;;;10.91;10.04;;;;;;;6.69;75.96;100595.44;452764;117;922706;-72
2022/12/11 06:03:37;;;;;;;9.99;9.17;;;;;;;6.72;75.87;100589.66;452733;115;922540;-73
2022/12/11 06:04:40;;;;;;;11.73;10.74;;;;;;;6.72;75.78;100592.38;452887;117;922597;-73
2022/12/11 06:05:44;;;;;;;10.42;9.51;;;;;;;6.75;75.84;100588.42;452922;117;922858;-73
2022/12/11 06:06:47;;;;;;;10.95;10.13;;;;;;;6.76;75.71;100590.11;452972;117;922509;-73
2022/12/11 06:07:50;;;;;;;10.54;9.62;;;;;;;6.77;75.76;100587.22;453024;117;922638;-73
2022/12/11 06:08:55;;;;;;;11.74;10.09;;;;;;;6.78;75.72;100582.64;452975;115;922554;-73
2022/12/11 06:09:58;;;;;;;10.34;9.56;;;;;;;6.79;75.60;100585.14;452793;117;922555;-73
2022/12/11 06:11:01;;;;;;;11.13;10.24;;;;;;;6.82;75.71;100594.77;452970;117;922483;-73
2022/12/11 06:12:04;;;;;;;10.06;9.22;;;;;;;6.85;75.63;100602.51;452913;117;922705;-72
2022/12/11 06:13:08;;;;;;;10.01;9.13;;;;;;;6.86;75.44;100590.64;452958;117;922445;-73
2022/12/11 06:14:11;;;;;;;11.16;10.16;;;;;;;6.87;75.27;100592.33;452916;115;923132;-73
2022/12/11 06:15:14;;;;;;;10.63;9.79;;;;;;;6.87;75.34;100593.17;452815;117;922799;-73
2022/12/11 06:16:18;;;;;;;10.27;9.45;;;;;;;6.89;75.19;100590.28;452844;117;930444;-73
2022/12/11 06:17:21;;;;;;;11.54;10.56;;;;;;;6.88;75.14;100584.02;452986;117;922538;-73
2022/12/11 06:18:24;;;;;;;11.42;10.36;;;;;;;6.91;75.21;100588.20;452986;117;922505;-73
2022/12/11 06:19:27;;;;;;;10.76;9.87;;;;;;;6.91;75.01;100582.78;452874;115;922497;-72
2022/12/11 06:20:33;;;;;;;10.08;9.28;;;;;;;6.90;74.98;100576.52;453362;115;922971;-73
2022/12/11 06:21:36;;;;;;;9.95;9.16;;;;;;;6.92;74.81;100573.63;457413;116;922949;-72
2022/12/11 06:22:40;;;;;;;9.53;8.81;;;;;;;6.91;74.91;100583.63;457495;116;922835;-73
2022/12/11 06:23:44;;;;;;;9.59;8.83;;;;;;;6.94;74.88;100576.99;457419;115;923179;-73
2022/12/11 06:24:48;;;;;;;8.67;8.05;;;;;;;6.94;74.78;100588.67;457273;116;930485;-72
2022/12/11 06:25:51;;;;;;;9.79;9.00;;;;;;;6.97;74.67;100588.28;457406;116;930558;-72
2022/12/11 06:26:54;;;;;;;10.44;9.18;;;;;;;6.98;74.62;100589.97;457456;116;922417;-72
2022/12/11 06:27:57;;;;;;;9.96;9.23;;;;;;;6.99;74.52;100586.23;457452;116;922597;-73
2022/12/11 06:29:00;;;;;;;10.29;9.49;;;;;;;7.00;74.61;100587.88;457474;115;922854;-72
2022/12/11 06:30:03;;;;;;;10.78;9.98;;;;;;;7.02;74.51;100590.41;457483;116;922618;-73
2022/12/11 06:31:06;;;;;;;10.16;9.27;;;;;;;7.05;74.47;100587.34;457341;116;922439;-73
2022/12/11 06:32:10;;;;;;;10.27;9.34;;;;;;;7.07;74.35;100582.55;457423;116;930528;-73
2022/12/11 06:33:13;;;;;;;10.40;9.51;;;;;;;7.09;74.30;100584.05;457454;116;922619;-73
2022/12/11 06:34:16;;;;;;;10.54;9.70;;;;;;;7.10;74.35;100580.30;457457;115;923009;-73
2022/12/11 06:35:19;;;;;;;10.27;9.38;;;;;;;7.12;74.15;100586.36;457490;116;923056;-72
2022/12/11 06:36:24;;;;;;;10.73;9.83;;;;;;;7.13;74.05;100577.20;457481;116;922638;-73
2022/12/11 06:37:27;;;;;;;10.12;9.32;;;;;;;7.15;73.96;100579.72;457309;116;922520;-72
2022/12/11 06:38:30;;;;;;;9.89;9.08;;;;;;;7.17;73.87;100580.34;457503;116;922558;-73
2022/12/11 06:39:33;;;;;;;9.49;8.79;;;;;;;7.19;73.81;100580.17;457440;116;922793;-72
2022/12/11 06:40:37;;;;;;;9.29;8.56;;;;;;;7.19;73.64;100572.87;457460;116;922461;-73
2022/12/11 06:41:40;;;;;;;9.63;8.94;;;;;;;7.20;73.54;100581.85;457428;116;923078;-73
2022/12/11 06:42:43;;;;;;;9.73;8.59;;;;;;;7.22;73.57;100579.80;457517;116;922616;-73
2022/12/11 06:43:46;;;;;;;9.88;9.06;;;;;;;7.23;73.58;100587.72;457491;116;923032;-72
2022/12/11 06:44:49;;;;;;;12.22;8.79;;;;;;;7.26;73.65;100586.50;457483;116;922503;-73
2022/12/11 06:45:52;;;;;;;9.39;8.66;;;;;;;7.28;73.45;100593.40;457483;116;922804;-72
2022/12/11 06:46:55;;;;;;;9.29;8.59;;;;;;;7.30;73.28;100593.21;457382;116;922612;-72
2022/12/11 06:47:58;;;;;;;9.58;8.87;;;;;;;7.30;73.13;100598.64;457519;116;922886;-72
2022/12/11 06:49:01;;;;;;;8.97;8.37;;;;;;;7.32;73.11;100602.01;457460;115;922783;-72
2022/12/11 06:50:05;;;;;;;9.73;8.95;;;;;;;7.33;73.11;100604.50;457523;116;922958;-73
2022/12/11 06:51:12;;;;;;;9.08;8.38;;;;;;;7.34;73.01;100600.77;457360;116;922531;-73
2022/12/11 06:52:15;;;;;;;9.09;8.47;;;;;;;7.36;73.05;100604.13;457201;116;930473;-72
2022/12/11 06:53:20;;;;;;;9.24;8.49;;;;;;;7.38;72.92;100603.95;457241;116;922462;-73
2022/12/11 06:54:26;;;;;;;9.15;8.46;;;;;;;7.40;72.94;100604.58;457452;115;922867;-73
2022/12/11 06:55:29;;;;;;;10.52;9.68;;;;;;;7.42;72.87;100597.09;457245;116;923112;-73
2022/12/11 06:56:34;;;;;;;12.37;11.43;;;;;;;7.46;72.77;100603.80;457472;116;922662;-73
2022/12/11 06:57:37;;;;;;;12.98;11.91;;;;;;;7.49;72.75;100614.28;457304;116;922469;-73
2022/12/11 06:58:41;;;;;;;9.87;8.96;;;;;;;7.50;72.72;100614.06;457394;114;930423;-73
2022/12/11 06:59:45;;;;;;;10.35;9.45;;;;;;;7.53;72.73;100616.41;457311;116;922662;-73
2022/12/11 07:00:48;;;;;;;9.41;8.70;;;;;;;7.55;72.61;100617.03;457465;116;922943;-72
2022/12/11 07:01:51;;;;;;;10.49;9.58;;;;;;;7.59;72.54;100608.52;457479;116;922471;-72
2022/12/11 07:02:54;;;;;;;10.87;10.03;;;;;;;7.61;72.36;100618.13;457459;116;923355;-72
2022/12/11 07:03:58;;;;;;;11.44;10.61;;;;;;;7.62;72.28;100614.39;457481;115;922652;-72
2022/12/11 07:05:02;;;;;;;9.91;9.08;;;;;;;7.63;72.17;100616.08;457321;116;922552;-74
2022/12/11 07:06:05;;;;;;;10.20;9.43;;;;;;;7.64;72.05;100609.63;457313;116;930586;-72
2022/12/11 07:07:09;;;;;;;10.35;9.44;;;;;;;7.65;71.96;100611.30;457470;116;922958;-72
2022/12/11 07:08:12;;;;;;;9.94;9.16;;;;;;;7.68;71.88;100604.62;457444;116;922490;-73
2022/12/11 07:09:15;;;;;;;9.82;9.03;;;;;;;7.68;71.88;100612.77;457478;115;922996;-74
2022/12/11 07:10:18;;;;;;;9.71;8.87;;;;;;;7.68;71.80;100613.61;457478;116;923337;-72
2022/12/11 07:11:21;;;;;;;8.66;7.89;;;;;;;7.69;71.77;100607.16;457495;116;922552;-72
2022/12/11 07:12:24;;;;;;;7.37;6.86;;;;;;;7.71;71.74;100606.97;457498;116;922631;-72
2022/12/11 07:13:27;;;;;;;8.32;7.66;;;;;;;7.73;71.72;100603.01;457478;115;922523;-72
2022/12/11 07:14:31;;;;;;;8.91;8.23;;;;;;;7.75;71.58;100603.66;457487;115;922537;-72
2022/12/11 07:15:35;;;;;;;8.78;7.97;;;;;;;7.77;71.68;100607.03;457395;116;922959;-73
2022/12/11 07:16:40;;;;;;;8.51;7.86;;;;;;;7.81;71.68;100604.75;456876;116;930946;-72
2022/12/11 07:17:43;;;;;;;9.99;9.19;;;;;;;7.83;71.64;100605.38;457466;116;922795;-73
2022/12/11 07:18:48;;;;;;;9.11;8.41;;;;;;;7.85;71.53;100604.16;457458;116;922895;-73
2022/12/11 07:19:52;;;;;;;9.03;8.33;;;;;;;7.88;71.38;100602.94;457288;116;923088;-72
2022/12/11 07:20:58;;;;;;;9.45;8.74;;;;;;;7.89;71.43;100597.30;457435;116;922526;-73
2022/12/11 10:28:19;;;;;;;9.07;8.16;;;;;;;8.56;71.18;100466.27;479634;108;946279;-76
2022/12/11 10:29:22;;;;;;;9.17;8.37;;;;;;;8.53;70.93;100465.86;464935;114;922528;-76
2022/12/11 10:30:30;;;;;;;9.39;8.49;;;;;;;8.59;70.80;100468.59;465028;113;923010;-77
2022/12/11 10:31:38;;;;;;;8.74;7.91;;;;;;;8.64;70.70;100460.66;464761;113;922834;-80
2022/12/11 10:33:02;;;;;;;10.29;9.42;;;;;;;8.70;70.63;100465.28;464925;112;923227;-80